Time;durP1;ratioP1;P1;durP2;ratioP2;P2;SDS_P1;SDS_P2;PMS_P1;PMS_P2;Temp;Humidity;BMP_temperature;BMP_pressure;BME280_temperature;BME280_humidity;BME280_pressure;Samples;Min_cycle;Max_cycle;Signal;HPM_P1;HPM_P2
2023/09/27 00:00:15;;;;;;;9.05;7.53;;;14.90;99.90;;;;;;4936486;29;20459;-44
2023/09/27 00:02:44;;;;;;;13.68;7.70;;;15.00;99.90;;;;;;4935610;29;20035;-49
2023/09/27 00:05:11;;;;;;;11.60;6.65;;;14.90;99.90;;;;;;4935292;29;20032;-48
2023/09/27 00:07:38;;;;;;;9.32;6.93;;;14.90;99.90;;;;;;4935407;29;20034;-48
2023/09/27 00:10:05;;;;;;;8.75;6.43;;;14.90;99.90;;;;;;4935178;29;20471;-47
2023/09/27 00:12:32;;;;;;;7.15;6.38;;;14.90;99.90;;;;;;4935304;29;20039;-45
2023/09/27 00:14:57;;;;;;;9.07;6.63;;;15.00;99.90;;;;;;4935281;29;20082;-45
2023/09/27 00:17:23;;;;;;;11.55;6.75;;;15.00;99.90;;;;;;4935078;29;20452;-47
2023/09/27 00:19:49;;;;;;;9.60;8.02;;;15.00;99.90;;;;;;4935578;29;20057;-46
2023/09/27 00:22:15;;;;;;;15.20;7.57;;;15.00;99.90;;;;;;4936367;29;20031;-46
2023/09/27 00:24:40;;;;;;;10.02;8.27;;;15.10;99.90;;;;;;4936149;29;20608;-45
2023/09/27 00:27:07;;;;;;;14.63;7.50;;;15.10;99.90;;;;;;4936240;29;20488;-44
2023/09/27 00:29:34;;;;;;;7.70;6.70;;;15.10;99.90;;;;;;4934505;29;20111;-49
2023/09/27 00:31:59;;;;;;;10.98;6.38;;;15.10;99.90;;;;;;4935174;29;20472;-46
2023/09/27 00:34:25;;;;;;;7.13;5.80;;;15.10;99.90;;;;;;4934981;29;20039;-45
2023/09/27 00:36:50;;;;;;;6.65;5.90;;;15.00;99.90;;;;;;4935508;29;20024;-45
2023/09/27 00:39:17;;;;;;;8.35;5.82;;;15.00;99.90;;;;;;4935168;29;20032;-46
2023/09/27 00:41:42;;;;;;;7.55;6.25;;;14.90;99.90;;;;;;4933549;29;20034;-49
2023/09/27 00:44:08;;;;;;;12.40;6.68;;;14.90;99.90;;;;;;4933141;29;20028;-46
2023/09/27 00:46:34;;;;;;;14.30;8.05;;;14.90;99.90;;;;;;4934478;29;20039;-46
2023/09/27 00:49:00;;;;;;;7.60;6.88;;;14.80;99.90;;;;;;4934704;29;20344;-47
2023/09/27 00:51:26;;;;;;;12.38;7.75;;;14.80;99.90;;;;;;4934653;29;20032;-46
2023/09/27 00:53:54;;;;;;;9.38;7.55;;;14.70;99.90;;;;;;4961559;23;20507;-47
2023/09/27 00:56:21;;;;;;;13.32;6.63;;;14.60;99.90;;;;;;4953756;28;20054;-46
2023/09/27 00:58:48;;;;;;;26.63;18.05;;;14.60;99.90;;;;;;4952508;29;20023;-46
2023/09/27 01:01:14;;;;;;;182.45;124.50;;;14.50;99.90;;;;;;4953682;28;20031;-45
2023/09/27 01:03:40;;;;;;;23.75;16.23;;;14.50;99.90;;;;;;4949710;28;20059;-44
2023/09/27 01:06:07;;;;;;;22.35;16.80;;;14.50;99.90;;;;;;4934847;29;20416;-46
2023/09/27 01:08:33;;;;;;;7.90;7.10;;;14.50;99.90;;;;;;4934704;29;20034;-47
2023/09/27 01:10:59;;;;;;;12.00;7.63;;;14.50;99.90;;;;;;4934757;29;20110;-46
2023/09/27 01:13:24;;;;;;;16.33;7.50;;;14.50;99.90;;;;;;4934493;29;20028;-47
2023/09/27 01:15:50;;;;;;;10.45;7.78;;;14.40;99.90;;;;;;4935359;29;20028;-45
2023/09/27 01:18:15;;;;;;;8.73;7.93;;;14.40;99.90;;;;;;4936252;29;20376;-46
2023/09/27 01:20:41;;;;;;;9.40;7.78;;;14.40;99.90;;;;;;4936164;29;20032;-49
2023/09/27 01:23:07;;;;;;;8.75;6.90;;;14.40;99.90;;;;;;4937356;29;20027;-44
2023/09/27 01:25:37;;;;;;;7.50;6.78;;;14.30;99.90;;;;;;4937023;29;20035;-45
2023/09/27 01:28:10;;;;;;;12.27;7.32;;;14.30;99.90;;;;;;4939690;29;20131;-45
2023/09/27 01:30:38;;;;;;;6.82;6.18;;;14.30;99.90;;;;;;4938217;28;20031;-46
2023/09/27 01:33:05;;;;;;;6.47;5.85;;;14.20;99.90;;;;;;4938120;29;20024;-48
2023/09/27 01:35:38;;;;;;;8.07;6.38;;;14.10;99.90;;;;;;4938020;29;20027;-47
2023/09/27 01:38:05;;;;;;;8.30;6.50;;;14.10;99.90;;;;;;4938752;29;20123;-47
2023/09/27 01:40:31;;;;;;;7.43;6.40;;;14.10;99.90;;;;;;4938362;29;20023;-45
2023/09/27 01:42:58;;;;;;;7.53;6.80;;;14.00;99.90;;;;;;4938600;29;20479;-45
2023/09/27 01:45:23;;;;;;;7.80;7.00;;;14.00;99.90;;;;;;4938274;29;20028;-45
2023/09/27 01:47:49;;;;;;;15.43;7.22;;;14.00;99.90;;;;;;4938462;29;20114;-48
2023/09/27 01:50:15;;;;;;;8.13;6.60;;;14.00;99.90;;;;;;4937983;29;20484;-47
2023/09/27 01:52:40;;;;;;;6.65;5.93;;;14.00;99.90;;;;;;4937757;29;20059;-46
2023/09/27 01:55:06;;;;;;;6.47;5.95;;;14.00;99.90;;;;;;4937460;29;20040;-46
2023/09/27 01:57:32;;;;;;;6.45;5.78;;;13.90;99.90;;;;;;4937892;29;20020;-51
2023/09/27 01:59:57;;;;;;;7.22;6.55;;;13.90;99.90;;;;;;4937801;29;20114;-46
2023/09/27 02:02:23;;;;;;;9.10;6.70;;;13.90;99.90;;;;;;4937737;29;20086;-46
2023/09/27 02:04:48;;;;;;;6.80;6.20;;;13.80;99.90;;;;;;4937327;29;20435;-49
2023/09/27 02:07:14;;;;;;;8.07;6.85;;;13.80;99.90;;;;;;4937766;29;20039;-47
2023/09/27 02:09:39;;;;;;;6.80;6.10;;;13.80;99.90;;;;;;4937560;29;20063;-46
2023/09/27 02:12:05;;;;;;;6.60;6.00;;;13.70;99.90;;;;;;4937443;29;20032;-47
2023/09/27 02:14:31;;;;;;;7.35;6.15;;;13.70;99.90;;;;;;4937026;29;20028;-49
2023/09/27 02:16:56;;;;;;;7.78;6.63;;;13.60;99.90;;;;;;4937519;29;20019;-47
2023/09/27 02:19:22;;;;;;;6.55;5.75;;;13.60;99.90;;;;;;4935906;29;20115;-48
2023/09/27 02:21:47;;;;;;;8.02;6.78;;;13.60;99.90;;;;;;4937410;29;20122;-46
2023/09/27 02:24:13;;;;;;;11.40;6.13;;;13.60;99.90;;;;;;4936933;29;20493;-48
2023/09/27 02:26:39;;;;;;;7.43;6.70;;;13.60;99.90;;;;;;4937206;29;20034;-47
2023/09/27 02:29:07;;;;;;;7.70;6.53;;;13.60;99.90;;;;;;4937270;29;20015;-46
2023/09/27 02:31:32;;;;;;;7.32;6.40;;;13.50;99.90;;;;;;4936964;29;20039;-46
2023/09/27 02:33:58;;;;;;;9.73;6.32;;;13.60;99.90;;;;;;4936701;29;20024;-46
2023/09/27 02:36:23;;;;;;;7.40;6.72;;;13.60;99.90;;;;;;4935354;29;20024;-48
2023/09/27 02:38:49;;;;;;;7.72;5.80;;;13.60;99.90;;;;;;4936866;29;20054;-48
2023/09/27 02:41:14;;;;;;;8.63;6.40;;;13.50;99.90;;;;;;4936941;29;20027;-46
2023/09/27 02:43:40;;;;;;;7.13;6.32;;;13.50;99.90;;;;;;4936553;29;20028;-48
2023/09/27 02:46:06;;;;;;;7.95;7.05;;;13.50;99.90;;;;;;4936778;29;20119;-50
2023/09/27 02:48:32;;;;;;;9.80;6.50;;;13.50;99.90;;;;;;4935623;29;20028;-50
2023/09/27 02:50:58;;;;;;;7.28;6.20;;;13.50;99.90;;;;;;4936701;29;20079;-46
2023/09/27 02:53:23;;;;;;;10.13;7.03;;;13.40;99.90;;;;;;4934926;29;20492;-45
2023/09/27 02:55:49;;;;;;;9.00;6.60;;;13.40;99.90;;;;;;4936812;29;20070;-47
2023/09/27 02:58:15;;;;;;;7.68;6.90;;;13.40;99.90;;;;;;4936598;29;20528;-49
2023/09/27 03:00:41;;;;;;;9.82;6.78;;;13.30;99.90;;;;;;4936526;29;20058;-48
2023/09/27 03:03:08;;;;;;;9.13;7.40;;;13.30;99.90;;;;;;4936459;29;20032;-45
2023/09/27 03:05:37;;;;;;;8.85;6.97;;;13.30;99.90;;;;;;4936268;29;20090;-48
2023/09/27 03:08:05;;;;;;;7.45;6.75;;;13.30;99.90;;;;;;4936607;29;20028;-46
2023/09/27 03:10:31;;;;;;;8.35;6.93;;;13.20;99.90;;;;;;4936401;29;20034;-46
2023/09/27 03:12:58;;;;;;;9.52;7.75;;;13.20;99.90;;;;;;4935123;29;20059;-45
2023/09/27 03:15:24;;;;;;;10.55;9.07;;;13.20;99.90;;;;;;4936049;29;20080;-46
2023/09/27 03:17:49;;;;;;;13.60;8.88;;;13.20;99.90;;;;;;4936645;29;20440;-48
2023/09/27 03:20:18;;;;;;;11.43;8.43;;;13.20;99.90;;;;;;4936048;29;20023;-51
2023/09/27 03:22:48;;;;;;;12.43;8.45;;;13.20;99.90;;;;;;4936038;29;20032;-47
2023/09/27 03:25:14;;;;;;;14.98;8.88;;;13.20;99.90;;;;;;4935877;29;20019;-50
2023/09/27 03:27:39;;;;;;;14.27;7.68;;;13.20;99.90;;;;;;4934841;29;20027;-47
2023/09/27 03:30:06;;;;;;;10.30;8.35;;;13.20;99.90;;;;;;4934817;29;20514;-45
2023/09/27 03:32:32;;;;;;;9.40;7.85;;;13.20;99.90;;;;;;4935868;29;20027;-49
2023/09/27 03:34:58;;;;;;;11.85;8.40;;;13.10;99.90;;;;;;4934525;29;20031;-51
2023/09/27 03:37:24;;;;;;;12.05;7.63;;;13.10;99.90;;;;;;4935863;29;20114;-48
2023/09/27 03:39:52;;;;;;;8.65;7.85;;;13.10;99.90;;;;;;4935869;29;20074;-45
2023/09/27 03:42:20;;;;;;;9.95;8.40;;;13.00;99.90;;;;;;4935765;29;20023;-51
2023/09/27 03:44:47;;;;;;;10.10;8.25;;;13.00;99.90;;;;;;4935406;29;20032;-48
2023/09/27 03:47:13;;;;;;;9.57;7.25;;;13.00;99.90;;;;;;4935792;29;20051;-45
2023/09/27 03:49:40;;;;;;;9.70;8.80;;;13.00;99.90;;;;;;4933450;29;20087;-45
2023/09/27 03:52:09;;;;;;;13.02;9.35;;;13.00;99.90;;;;;;4935742;29;20412;-52
2023/09/27 03:54:35;;;;;;;10.15;9.13;;;13.00;99.90;;;;;;4935073;29;20040;-47
2023/09/27 03:57:00;;;;;;;12.00;9.95;;;13.10;99.90;;;;;;4935541;29;20038;-49
2023/09/27 03:59:26;;;;;;;13.27;10.38;;;13.20;99.90;;;;;;4934243;29;20059;-50
2023/09/27 04:01:51;;;;;;;14.80;10.77;;;13.20;99.90;;;;;;4935462;29;20023;-45
2023/09/27 04:04:20;;;;;;;12.35;10.57;;;13.20;99.90;;;;;;4935032;29;20446;-48
2023/09/27 04:06:45;;;;;;;11.43;10.10;;;13.10;99.90;;;;;;4935949;29;20024;-46
2023/09/27 04:09:12;;;;;;;13.70;10.43;;;12.90;99.90;;;;;;4935335;29;20095;-50
2023/09/27 04:11:38;;;;;;;12.48;11.15;;;12.90;99.90;;;;;;4935297;29;20420;-50
2023/09/27 04:14:06;;;;;;;14.65;12.20;;;12.90;99.90;;;;;;4935083;29;20032;-47
2023/09/27 04:16:32;;;;;;;16.95;11.43;;;12.90;99.90;;;;;;4935261;29;20027;-49
2023/09/27 04:18:58;;;;;;;14.27;10.35;;;12.80;99.90;;;;;;4934861;29;20033;-46
2023/09/27 04:21:25;;;;;;;10.30;8.68;;;12.80;99.90;;;;;;4935431;29;20034;-49
2023/09/27 04:23:59;;;;;;;12.88;8.50;;;12.70;99.90;;;;;;4934726;29;20023;-50
2023/09/27 04:26:24;;;;;;;9.20;8.30;;;12.70;99.90;;;;;;4935162;29;20038;-48
2023/09/27 04:28:52;;;;;;;11.43;9.15;;;12.60;99.90;;;;;;4935161;29;20028;-47
2023/09/27 04:31:18;;;;;;;10.15;8.95;;;12.60;99.90;;;;;;4935357;29;20023;-50
2023/09/27 04:33:44;;;;;;;9.80;8.63;;;12.50;99.90;;;;;;4934486;29;20034;-47
2023/09/27 04:36:15;;;;;;;9.57;8.43;;;12.50;99.90;;;;;;4934932;29;20023;-45
2023/09/27 04:38:41;;;;;;;11.65;8.93;;;12.50;99.90;;;;;;4933605;29;20030;-45
2023/09/27 04:41:08;;;;;;;9.30;8.45;;;12.50;99.90;;;;;;4934836;29;20396;-47
2023/09/27 04:43:34;;;;;;;10.75;8.88;;;12.40;99.90;;;;;;4934455;29;20431;-51
2023/09/27 04:45:59;;;;;;;13.85;8.65;;;12.40;99.90;;;;;;4934751;29;20098;-45
2023/09/27 04:48:25;;;;;;;8.90;8.07;;;12.40;99.90;;;;;;4934743;29;20042;-47
2023/09/27 04:50:51;;;;;;;8.82;7.68;;;12.50;99.90;;;;;;4934594;29;20035;-47
2023/09/27 04:53:16;;;;;;;10.98;8.02;;;12.50;99.90;;;;;;4934288;29;20015;-49
2023/09/27 04:55:42;;;;;;;8.40;7.60;;;12.50;99.90;;;;;;4934530;29;20035;-46
2023/09/27 04:58:07;;;;;;;9.23;7.68;;;12.40;99.90;;;;;;4934605;29;20483;-45
2023/09/27 05:00:33;;;;;;;8.93;7.88;;;12.40;99.90;;;;;;4934314;29;20503;-45
2023/09/27 05:02:59;;;;;;;9.85;8.40;;;12.40;99.90;;;;;;4934605;29;20035;-51
2023/09/27 05:05:24;;;;;;;8.95;7.72;;;12.30;99.90;;;;;;4933850;29;20076;-44
2023/09/27 05:07:50;;;;;;;13.00;8.30;;;12.30;99.90;;;;;;4933396;29;20050;-45
2023/09/27 05:10:15;;;;;;;12.50;8.98;;;12.30;99.90;;;;;;4934360;29;20031;-46
2023/09/27 05:12:41;;;;;;;9.70;8.73;;;12.30;99.90;;;;;;4934477;29;20034;-48
2023/09/27 05:15:09;;;;;;;11.63;8.45;;;12.40;99.90;;;;;;4934102;29;20070;-46
2023/09/27 05:17:34;;;;;;;11.55;7.55;;;12.40;99.90;;;;;;4934426;29;20019;-45
2023/09/27 05:20:00;;;;;;;10.65;7.95;;;12.40;99.90;;;;;;4934149;29;20039;-45
2023/09/27 05:22:25;;;;;;;7.35;6.72;;;12.40;99.90;;;;;;4934320;29;20151;-48
2023/09/27 05:24:51;;;;;;;11.70;7.70;;;12.30;99.90;;;;;;4933963;29;20160;-45
2023/09/27 05:27:17;;;;;;;9.40;8.13;;;12.30;99.90;;;;;;4934231;29;20028;-46
2023/09/27 05:29:43;;;;;;;9.80;8.15;;;12.30;99.90;;;;;;4934094;29;20437;-46
2023/09/27 05:32:08;;;;;;;9.10;7.78;;;12.30;99.90;;;;;;4934258;29;20037;-48
2023/09/27 05:34:34;;;;;;;8.85;7.95;;;12.30;99.90;;;;;;4933941;29;20038;-47
2023/09/27 05:37:00;;;;;;;13.40;8.05;;;12.30;99.90;;;;;;4934375;29;20028;-46
2023/09/27 05:39:26;;;;;;;8.10;7.30;;;12.40;99.90;;;;;;4934338;29;20555;-49
2023/09/27 05:41:52;;;;;;;10.65;7.30;;;12.40;99.90;;;;;;4934127;29;20027;-45
2023/09/27 05:44:17;;;;;;;8.55;7.63;;;12.40;99.90;;;;;;4932714;29;20024;-47
2023/09/27 05:46:44;;;;;;;7.75;7.05;;;12.40;99.90;;;;;;4932859;29;20028;-46
2023/09/27 05:49:11;;;;;;;8.68;6.95;;;12.50;99.90;;;;;;4932969;29;20020;-45
2023/09/27 05:51:37;;;;;;;10.32;7.38;;;12.50;99.90;;;;;;4933791;29;20087;-45
2023/09/27 05:54:03;;;;;;;9.32;6.90;;;12.50;99.90;;;;;;4933502;29;20043;-49
2023/09/27 05:56:32;;;;;;;8.45;7.65;;;12.50;99.90;;;;;;4934301;29;20023;-47
2023/09/27 05:58:59;;;;;;;11.52;6.80;;;12.50;99.90;;;;;;4935490;29;20030;-45
2023/09/27 06:01:25;;;;;;;14.35;7.50;;;12.60;99.90;;;;;;4935392;29;20028;-45
2023/09/27 06:03:50;;;;;;;14.18;7.57;;;12.60;99.90;;;;;;4935715;29;20026;-45
2023/09/27 06:06:15;;;;;;;12.82;7.72;;;12.70;99.90;;;;;;4935294;29;20038;-44
2023/09/27 06:08:41;;;;;;;16.42;9.23;;;12.80;99.90;;;;;;4935146;29;20032;-47
2023/09/27 06:11:08;;;;;;;19.08;10.23;;;12.80;99.90;;;;;;4935173;29;20034;-46
2023/09/27 06:13:33;;;;;;;13.15;9.02;;;13.00;99.90;;;;;;4937211;29;20019;-53
2023/09/27 06:16:00;;;;;;;18.42;9.60;;;13.10;99.90;;;;;;4937763;29;20020;-44
2023/09/27 06:18:26;;;;;;;13.45;9.65;;;13.20;99.90;;;;;;4937380;29;20104;-49
2023/09/27 06:20:52;;;;;;;15.90;10.25;;;13.30;99.90;;;;;;4937212;29;20531;-52
2023/09/27 06:23:19;;;;;;;10.88;8.23;;;13.40;99.90;;;;;;4937527;29;20034;-50
2023/09/27 06:25:46;;;;;;;10.60;7.75;;;13.60;99.90;;;;;;4937334;29;20403;-46
2023/09/27 06:28:13;;;;;;;8.65;7.78;;;13.70;99.90;;;;;;4937236;29;20560;-45
2023/09/27 06:30:43;;;;;;;9.95;6.95;;;13.90;99.90;;;;;;4936031;29;20448;-44
2023/09/27 06:33:09;;;;;;;10.40;8.35;;;14.10;99.90;;;;;;4937124;29;20063;-50
2023/09/27 06:35:36;;;;;;;10.77;7.95;;;14.40;99.90;;;;;;4936903;29;20134;-52
2023/09/27 06:38:02;;;;;;;8.82;7.90;;;14.30;99.90;;;;;;4937074;29;20504;-50
2023/09/27 06:40:29;;;;;;;9.93;8.93;;;14.50;99.90;;;;;;4935721;29;20035;-47
2023/09/27 06:42:55;;;;;;;11.68;8.20;;;14.80;99.90;;;;;;4936794;29;20023;-49
2023/09/27 06:45:21;;;;;;;9.88;8.48;;;15.00;99.90;;;;;;4936719;29;20090;-51
2023/09/27 06:47:46;;;;;;;20.40;10.35;;;15.30;99.90;;;;;;4937059;29;20035;-51
2023/09/27 06:50:13;;;;;;;10.65;8.88;;;15.70;99.90;;;;;;4937138;29;20148;-43
2023/09/27 06:52:40;;;;;;;9.88;8.60;;;15.80;99.90;;;;;;4937271;29;20032;-47
2023/09/27 06:55:13;;;;;;;9.50;8.13;;;16.10;99.90;;;;;;4969169;23;20095;-46
2023/09/27 06:57:44;;;;;;;10.45;9.00;;;16.30;99.90;;;;;;4956155;28;20372;-46
2023/09/27 07:00:18;;;;;;;9.55;8.35;;;16.90;99.90;;;;;;4955920;28;20026;-45
2023/09/27 07:02:47;;;;;;;9.73;8.30;;;17.30;99.90;;;;;;4955818;28;20023;-45
2023/09/27 07:05:14;;;;;;;7.75;6.97;;;17.80;99.90;;;;;;4942767;28;20095;-47
2023/09/27 07:07:40;;;;;;;12.05;7.13;;;18.50;99.90;;;;;;4936703;29;20027;-45
2023/09/27 07:10:06;;;;;;;11.07;7.78;;;19.10;99.90;;;;;;4936412;29;20031;-47
2023/09/27 07:12:33;;;;;;;8.27;7.38;;;19.70;99.90;;;;;;4936417;29;20016;-46
2023/09/27 07:14:59;;;;;;;11.02;7.35;;;20.30;99.90;;;;;;4936176;29;20028;-45
2023/09/27 07:17:25;;;;;;;10.55;6.85;;;21.00;99.90;;;;;;4936444;29;20521;-45
2023/09/27 07:19:52;;;;;;;12.02;6.57;;;21.70;99.90;;;;;;4936200;29;20039;-48
2023/09/27 07:22:17;;;;;;;10.95;6.10;;;22.20;99.90;;;;;;4936678;29;20058;-47
2023/09/27 07:24:43;;;;;;;16.70;6.47;;;22.60;99.90;;;;;;4936149;29;20031;-46
2023/09/27 07:27:09;;;;;;;10.00;5.80;;;23.30;99.90;;;;;;4936374;29;20456;-49
2023/09/27 07:29:34;;;;;;;15.10;6.30;;;23.80;99.90;;;;;;4937075;29;20024;-49
2023/09/27 07:32:00;;;;;;;8.82;5.88;;;24.40;99.90;;;;;;4936507;29;20041;-45
2023/09/27 07:34:25;;;;;;;8.57;5.10;;;24.80;99.90;;;;;;4935951;29;20456;-47
2023/09/27 07:36:54;;;;;;;22.30;5.90;;;24.80;99.60;;;;;;4935980;29;20075;-46
2023/09/27 07:39:20;;;;;;;8.48;6.60;;;24.80;99.10;;;;;;4935941;29;20059;-48
2023/09/27 07:41:46;;;;;;;9.10;6.53;;;23.60;99.90;;;;;;4935870;29;20084;-48
2023/09/27 07:44:12;;;;;;;11.35;6.55;;;22.60;99.90;;;;;;4935689;29;20066;-45
2023/09/27 07:46:38;;;;;;;7.10;6.25;;;21.70;99.90;;;;;;4934534;29;20027;-48
2023/09/27 07:49:04;;;;;;;7.25;6.53;;;20.80;99.90;;;;;;4936087;29;20032;-47
2023/09/27 07:51:29;;;;;;;15.20;7.68;;;20.10;99.90;;;;;;4935919;29;20395;-50
2023/09/27 07:53:55;;;;;;;8.52;7.63;;;19.50;99.90;;;;;;4935205;29;20124;-47
2023/09/27 07:56:22;;;;;;;10.05;7.50;;;18.80;99.90;;;;;;4935962;29;20114;-48
2023/09/27 07:58:51;;;;;;;10.02;7.80;;;18.20;99.90;;;;;;4935639;29;20023;-47
2023/09/27 08:01:20;;;;;;;12.73;8.18;;;17.90;99.90;;;;;;4935850;29;20031;-47
2023/09/27 08:03:48;;;;;;;11.10;8.23;;;17.70;99.90;;;;;;4935306;29;20031;-47
2023/09/27 08:06:13;;;;;;;11.98;8.45;;;17.50;99.90;;;;;;4935566;29;20396;-48
2023/09/27 08:08:39;;;;;;;9.52;8.57;;;17.40;99.90;;;;;;4935621;29;20032;-47
2023/09/27 08:11:04;;;;;;;12.18;9.80;;;17.30;99.90;;;;;;4935316;29;20377;-47
2023/09/27 08:13:31;;;;;;;9.23;8.32;;;17.30;99.90;;;;;;4935317;29;20034;-46
2023/09/27 08:15:57;;;;;;;13.23;9.95;;;17.20;99.90;;;;;;4935338;29;20066;-46
2023/09/27 08:18:24;;;;;;;10.65;9.30;;;17.10;99.90;;;;;;4935374;29;20051;-45
2023/09/27 08:20:52;;;;;;;10.63;9.63;;;17.00;99.90;;;;;;4935187;29;20034;-46
2023/09/27 08:23:18;;;;;;;11.15;10.05;;;17.10;99.90;;;;;;4934904;29;20027;-47
2023/09/27 08:25:43;;;;;;;9.77;8.88;;;17.00;99.90;;;;;;4935010;29;20510;-46
2023/09/27 08:28:09;;;;;;;11.35;9.15;;;17.10;99.90;;;;;;4935189;29;20036;-48
2023/09/27 08:30:35;;;;;;;12.18;10.77;;;17.10;99.90;;;;;;4935044;29;20028;-49
2023/09/27 08:33:01;;;;;;;13.88;12.13;;;17.10;99.90;;;;;;4935144;29;20027;-47
2023/09/27 08:35:27;;;;;;;14.60;12.23;;;17.20;99.90;;;;;;4934495;29;20027;-49
2023/09/27 08:37:53;;;;;;;14.77;13.27;;;17.20;99.90;;;;;;4934944;29;20035;-46
2023/09/27 08:40:18;;;;;;;16.80;12.73;;;17.10;99.90;;;;;;4935090;29;20035;-50
2023/09/27 08:42:50;;;;;;;13.48;11.32;;;17.20;99.90;;;;;;4934987;29;20454;-47
2023/09/27 08:45:18;;;;;;;12.23;10.95;;;17.10;99.90;;;;;;4934764;29;20075;-49
2023/09/27 08:47:45;;;;;;;13.68;12.25;;;17.10;99.90;;;;;;4934817;29;20519;-51
2023/09/27 08:50:13;;;;;;;15.10;13.10;;;17.10;99.90;;;;;;4934678;29;20267;-47
2023/09/27 08:52:45;;;;;;;19.92;12.82;;;17.20;99.90;;;;;;4934623;29;20024;-47
2023/09/27 08:55:12;;;;;;;17.38;12.23;;;17.20;99.90;;;;;;4934393;29;20410;-46
2023/09/27 08:57:43;;;;;;;12.80;10.38;;;17.70;99.90;;;;;;4934523;29;20364;-47
2023/09/27 09:00:13;;;;;;;11.55;8.93;;;18.90;99.90;;;;;;4934660;29;20083;-46
2023/09/27 09:02:42;;;;;;;16.08;9.75;;;20.50;99.90;;;;;;4934446;29;20087;-46
2023/09/27 09:05:12;;;;;;;11.48;10.30;;;22.00;99.90;;;;;;4934278;29;20034;-47
2023/09/27 09:07:40;;;;;;;12.05;10.07;;;23.60;99.90;;;;;;4934483;29;20118;-47
2023/09/27 09:10:09;;;;;;;11.88;9.48;;;24.50;99.90;;;;;;4934278;29;20484;-47
2023/09/27 09:12:37;;;;;;;11.63;10.05;;;25.40;99.90;;;;;;4934466;29;20103;-47
2023/09/27 09:15:05;;;;;;;13.10;10.48;;;26.40;99.90;;;;;;4934337;29;20024;-48
2023/09/27 09:17:34;;;;;;;12.63;11.10;;;27.20;99.20;;;;;;4934311;29;20028;-51
2023/09/27 09:20:15;;;;;;;12.90;10.23;;;28.00;97.90;;;;;;4934163;29;20570;-46
2023/09/27 09:22:44;;;;;;;9.98;8.98;;;28.00;97.00;;;;;;4934082;29;20035;-47
2023/09/27 09:25:10;;;;;;;15.00;8.27;;;28.40;96.70;;;;;;4933964;29;20110;-46
2023/09/27 09:27:36;;;;;;;12.50;8.32;;;28.80;96.40;;;;;;4934156;29;20405;-46
2023/09/27 09:30:06;;;;;;;11.57;10.30;;;29.00;96.10;;;;;;4934094;29;20168;-50
2023/09/27 09:32:32;;;;;;;13.18;10.00;;;28.90;95.10;;;;;;4934191;29;20162;-46
2023/09/27 09:34:57;;;;;;;16.20;10.65;;;28.80;95.30;;;;;;4933708;29;20051;-47
2023/09/27 09:37:27;;;;;;;11.60;9.32;;;28.40;95.70;;;;;;4934236;29;20024;-46
2023/09/27 09:40:05;;;;;;;11.93;10.73;;;27.90;96.30;;;;;;4934348;29;20024;-43
2023/09/27 09:42:34;;;;;;;17.33;12.05;;;27.60;96.70;;;;;;4934140;29;20503;-47
2023/09/27 09:45:12;;;;;;;12.73;11.32;;;27.40;96.90;;;;;;4933997;29;20103;-46
2023/09/27 09:47:39;;;;;;;14.07;11.50;;;27.10;97.80;;;;;;4935898;29;20035;-47
2023/09/27 09:50:16;;;;;;;15.77;12.75;;;26.80;97.70;;;;;;4937743;29;20524;-48
2023/09/27 09:52:58;;;;;;;14.13;11.43;;;26.50;98.30;;;;;;4938058;29;20032;-47
2023/09/27 09:55:29;;;;;;;14.68;13.15;;;26.30;98.90;;;;;;4937418;29;20518;-48
2023/09/27 09:58:20;;;;;;;15.98;12.75;;;26.00;99.10;;;;;;4937665;29;20028;-47
2023/09/27 10:00:49;;;;;;;17.58;12.52;;;25.60;99.90;;;;;;4937601;29;20027;-47
2023/09/27 10:03:20;;;;;;;14.25;12.07;;;25.50;99.90;;;;;;4937382;29;20503;-46
2023/09/27 10:05:49;;;;;;;12.10;10.57;;;25.50;99.90;;;;;;4937574;29;20036;-50
2023/09/27 10:08:17;;;;;;;11.18;10.07;;;25.50;99.90;;;;;;4937637;29;20047;-47
2023/09/27 10:10:42;;;;;;;11.25;9.60;;;25.40;99.90;;;;;;4937591;29;20031;-47
2023/09/27 10:13:09;;;;;;;19.20;12.93;;;25.20;99.90;;;;;;4936290;29;20023;-48
2023/09/27 10:15:35;;;;;;;12.75;10.88;;;25.10;99.90;;;;;;4937163;29;20032;-47
2023/09/27 10:18:23;;;;;;;12.32;10.18;;;24.60;99.90;;;;;;4937510;29;20031;-48
2023/09/27 10:21:03;;;;;;;13.30;9.48;;;24.40;99.90;;;;;;4937315;29;20024;-50
2023/09/27 10:23:45;;;;;;;16.17;10.68;;;24.40;99.90;;;;;;4937688;29;20036;-47
2023/09/27 10:26:37;;;;;;;12.85;10.43;;;24.40;99.90;;;;;;4937258;29;20034;-49
2023/09/27 10:29:06;;;;;;;11.52;10.32;;;24.20;99.90;;;;;;4937155;29;20027;-50
2023/09/27 10:31:38;;;;;;;10.35;9.35;;;23.90;99.90;;;;;;4937201;29;20027;-49
2023/09/27 10:34:25;;;;;;;12.60;10.52;;;23.50;99.90;;;;;;4935563;29;20439;-50
2023/09/27 10:36:50;;;;;;;13.98;10.85;;;23.30;99.90;;;;;;4936528;29;20035;-46
2023/09/27 10:39:17;;;;;;;13.93;9.35;;;23.20;99.90;;;;;;4935939;29;20028;-49
2023/09/27 10:41:46;;;;;;;13.13;9.05;;;23.30;99.90;;;;;;4937044;29;20086;-47
2023/09/27 10:44:12;;;;;;;11.30;9.60;;;23.50;99.90;;;;;;4936582;29;20107;-46
2023/09/27 10:46:47;;;;;;;14.77;10.75;;;23.50;99.90;;;;;;4936834;29;20119;-46
2023/09/27 10:49:18;;;;;;;;;;;23.50;99.90;;;;;;4937197;29;20024;-48
2023/09/27 10:51:44;;;;;;;13.05;10.27;;;23.40;99.90;;;;;;4936878;29;19910;-49
2023/09/27 10:54:10;;;;;;;10.55;9.50;;;23.10;99.90;;;;;;4936517;29;20027;-46
2023/09/27 10:56:35;;;;;;;12.05;9.20;;;23.00;99.90;;;;;;4936807;29;20491;-47
2023/09/27 10:59:02;;;;;;;11.43;10.23;;;22.90;99.90;;;;;;4936273;29;20058;-47
2023/09/27 11:01:28;;;;;;;14.20;11.05;;;22.80;99.90;;;;;;4936988;29;20038;-47
2023/09/27 11:04:00;;;;;;;14.95;8.90;;;22.70;99.90;;;;;;4936298;29;20031;-48
2023/09/27 11:06:27;;;;;;;10.95;9.75;;;22.70;99.90;;;;;;4936889;29;20649;-46
2023/09/27 11:09:12;;;;;;;12.85;10.30;;;22.50;99.90;;;;;;4936771;29;20059;-46
2023/09/27 11:11:59;;;;;;;11.82;9.68;;;22.30;99.90;;;;;;4935537;29;20404;-47
2023/09/27 11:14:32;;;;;;;11.38;9.32;;;22.20;99.90;;;;;;4935133;29;20024;-48
2023/09/27 11:17:21;;;;;;;12.10;9.73;;;22.10;99.90;;;;;;4936409;29;20107;-46
2023/09/27 11:19:48;;;;;;;10.30;8.43;;;22.10;99.90;;;;;;4936120;29;20031;-47
2023/09/27 11:22:32;;;;;;;11.52;8.68;;;22.20;99.90;;;;;;4936180;29;20023;-48
2023/09/27 11:24:58;;;;;;;7.55;6.90;;;22.30;99.90;;;;;;4935956;29;20038;-46
2023/09/27 11:27:24;;;;;;;13.80;7.03;;;22.40;99.90;;;;;;4935952;29;20028;-45
2023/09/27 11:29:53;;;;;;;9.77;8.43;;;22.50;99.90;;;;;;4934997;29;20087;-48
2023/09/27 11:32:20;;;;;;;16.88;7.57;;;22.60;99.90;;;;;;4936051;29;20075;-48
2023/09/27 11:34:55;;;;;;;8.73;7.32;;;22.70;99.90;;;;;;4939786;29;20054;-45
2023/09/27 11:37:23;;;;;;;24.27;18.10;;;22.70;99.90;;;;;;4955171;28;20063;-48
2023/09/27 11:39:50;;;;;;;8.80;7.88;;;22.60;99.90;;;;;;4954326;28;20106;-46
2023/09/27 11:42:21;;;;;;;11.15;8.07;;;22.40;99.90;;;;;;4954615;28;20019;-49
2023/09/27 11:45:00;;;;;;;7.88;7.13;;;22.20;99.90;;;;;;4954592;28;20027;-48
2023/09/27 11:47:26;;;;;;;6.97;6.35;;;22.00;99.90;;;;;;4955003;28;20027;-48
2023/09/27 11:49:51;;;;;;;8.48;6.80;;;22.00;99.90;;;;;;4955042;28;20034;-46
2023/09/27 11:52:17;;;;;;;9.60;6.78;;;22.10;99.90;;;;;;4954771;28;20038;-49
2023/09/27 11:54:45;;;;;;;6.75;6.10;;;22.10;99.90;;;;;;4954593;28;20031;-48
2023/09/27 11:57:10;;;;;;;8.48;7.35;;;22.00;99.90;;;;;;4954973;28;20046;-48
2023/09/27 11:59:37;;;;;;;7.35;6.40;;;22.10;99.90;;;;;;4954353;28;20019;-46
2023/09/27 12:02:03;;;;;;;9.65;7.47;;;22.10;99.90;;;;;;4916643;29;20460;-47
2023/09/27 12:04:28;;;;;;;13.90;8.60;;;22.10;99.90;;;;;;4929988;29;20062;-50
2023/09/27 12:06:54;;;;;;;15.52;11.57;;;22.10;99.90;;;;;;4913318;29;20503;-50
2023/09/27 12:09:19;;;;;;;50.80;32.25;;;22.10;99.90;;;;;;4914386;29;20878;-45
2023/09/27 12:11:45;;;;;;;12.30;8.50;;;22.10;99.90;;;;;;4915935;29;20028;-47
2023/09/27 12:14:11;;;;;;;10.65;7.70;;;22.10;99.90;;;;;;4915828;29;20028;-47
2023/09/27 12:16:36;;;;;;;8.75;6.38;;;22.10;99.90;;;;;;4916695;29;20507;-51
2023/09/27 12:19:02;;;;;;;11.50;8.05;;;22.10;99.90;;;;;;4916022;29;20036;-47
2023/09/27 12:21:34;;;;;;;9.73;8.18;;;22.10;99.90;;;;;;4916603;29;20433;-51
2023/09/27 12:24:00;;;;;;;8.27;7.47;;;22.10;99.90;;;;;;4930824;29;20024;-46
2023/09/27 12:26:25;;;;;;;6.70;6.10;;;22.20;99.90;;;;;;4916258;29;20123;-47
2023/09/27 12:28:51;;;;;;;7.53;5.38;;;22.30;99.90;;;;;;4916235;29;20138;-50
2023/09/27 12:31:16;;;;;;;7.93;6.90;;;22.20;99.90;;;;;;4916099;29;20067;-49
2023/09/27 12:33:42;;;;;;;8.90;6.88;;;22.20;99.90;;;;;;4915738;29;20030;-50
2023/09/27 12:36:07;;;;;;;8.38;6.30;;;22.20;99.90;;;;;;4930582;29;20012;-48
2023/09/27 12:38:33;;;;;;;6.80;5.88;;;22.20;99.90;;;;;;4930903;29;20024;-49